createdAt,value
2019-02-08T00:00:19.933Z,90.00
2019-02-08T00:02:52.210Z,90.00
2019-02-08T00:05:23.304Z,90.00
2019-02-08T00:07:53.880Z,90.00
2019-02-08T00:10:24.557Z,90.00
2019-02-08T00:12:55.117Z,90.10
2019-02-08T00:15:25.653Z,90.10
2019-02-08T00:17:56.133Z,90.10
2019-02-08T00:20:26.653Z,90.20
2019-02-08T00:22:57.178Z,90.20
2019-02-08T00:25:27.831Z,90.10
2019-02-08T00:27:59.247Z,90.00
2019-02-08T00:30:29.823Z,89.90
2019-02-08T00:33:00.330Z,89.80
2019-02-08T00:35:30.821Z,89.80
2019-02-08T00:38:01.650Z,90.00
2019-02-08T00:40:32.233Z,90.00
2019-02-08T00:43:02.755Z,90.00
2019-02-08T00:45:33.533Z,90.10
2019-02-08T00:48:04.221Z,90.10
2019-02-08T00:50:34.825Z,90.10
2019-02-08T00:53:05.321Z,90.20
2019-02-08T00:55:35.846Z,90.10
2019-02-08T00:58:06.378Z,90.10
2019-02-08T01:00:36.997Z,90.10
2019-02-08T01:03:07.730Z,90.10
2019-02-08T01:05:39.382Z,90.40
2019-02-08T01:08:10.528Z,90.10
2019-02-08T01:10:41.318Z,90.20
2019-02-08T01:13:11.850Z,90.20
2019-02-08T01:15:42.342Z,90.20
2019-02-08T01:18:12.907Z,90.20
2019-02-08T01:20:43.469Z,90.00
2019-02-08T01:23:14.094Z,90.00
2019-02-08T01:25:44.960Z,89.90
2019-02-08T01:28:15.471Z,89.90
2019-02-08T01:30:45.954Z,89.80
2019-02-08T01:33:16.885Z,89.90
2019-02-08T01:35:47.373Z,89.90
2019-02-08T01:38:17.957Z,89.90
2019-02-08T01:40:48.578Z,90.00
2019-02-08T01:43:19.067Z,90.00
2019-02-08T01:45:49.565Z,90.10
2019-02-08T01:48:21.145Z,90.10
2019-02-08T01:50:51.637Z,90.10
2019-02-08T01:53:22.137Z,90.10
2019-02-08T01:55:52.750Z,90.20
2019-02-08T01:58:23.258Z,90.10
2019-02-08T02:00:54.130Z,90.10
2019-02-08T02:03:24.620Z,90.10
2019-02-08T02:05:55.128Z,90.20
2019-02-08T02:08:25.630Z,90.20
2019-02-08T02:10:56.223Z,90.20
2019-02-08T02:13:26.715Z,90.20
2019-02-08T02:15:57.214Z,90.20
2019-02-08T02:18:27.705Z,90.30
2019-02-08T02:20:58.312Z,90.30
2019-02-08T02:23:28.802Z,90.30
2019-02-08T02:25:59.358Z,90.40
2019-02-08T02:28:29.850Z,90.40
2019-02-08T02:31:00.360Z,90.40
2019-02-08T02:33:30.837Z,90.40
2019-02-08T02:36:01.377Z,90.50
2019-02-08T02:38:31.937Z,90.50
2019-02-08T02:41:02.618Z,90.50
2019-02-08T02:43:33.350Z,90.50
2019-02-08T02:46:04.053Z,90.50
2019-02-08T02:48:34.698Z,90.40
2019-02-08T02:51:05.320Z,90.40
2019-02-08T02:53:35.997Z,90.30
2019-02-08T02:56:06.612Z,90.20
2019-02-08T02:58:37.138Z,90.20
2019-02-08T03:01:07.787Z,90.10
2019-02-08T03:03:38.477Z,90.20
2019-02-08T03:06:09.066Z,90.30
2019-02-08T03:08:39.869Z,90.30
2019-02-08T03:11:10.832Z,90.30
2019-02-08T03:13:41.429Z,90.40
2019-02-08T03:16:12.022Z,90.50
2019-02-08T03:18:42.742Z,90.50
2019-02-08T03:21:13.684Z,90.60
2019-02-08T03:23:44.267Z,90.60
2019-02-08T03:26:14.925Z,90.60
2019-02-08T03:28:45.539Z,90.60
2019-02-08T03:31:16.183Z,90.60
2019-02-08T03:33:46.907Z,90.70
2019-02-08T03:36:17.581Z,90.70
2019-02-08T03:38:48.123Z,90.70
2019-02-08T03:41:18.829Z,90.70
2019-02-08T03:43:49.791Z,90.70
2019-02-08T03:46:20.432Z,90.70
2019-02-08T03:48:51.027Z,90.80
2019-02-08T03:51:21.745Z,90.80
2019-02-08T03:53:52.414Z,90.80
2019-02-08T03:56:22.974Z,90.80
2019-02-08T03:58:53.594Z,90.80
2019-02-08T04:01:24.259Z,90.70
2019-02-08T04:04:05.598Z,90.60
2019-02-08T04:06:36.275Z,90.50
2019-02-08T04:09:07.957Z,90.50
2019-02-08T04:11:38.759Z,90.50
2019-02-08T04:14:09.536Z,90.80
2019-02-08T04:16:40.207Z,90.40
2019-02-08T04:19:10.922Z,90.30
2019-02-08T04:21:41.517Z,90.20
2019-02-08T04:24:12.148Z,90.10
2019-02-08T04:26:42.749Z,90.10
2019-02-08T04:29:13.440Z,90.10
2019-02-08T04:31:44.019Z,89.60
2019-02-08T04:34:14.776Z,90.10
2019-02-08T04:36:45.374Z,90.20
2019-02-08T04:39:15.916Z,90.10
2019-02-08T04:41:46.695Z,90.10
2019-02-08T04:44:17.397Z,90.10
2019-02-08T04:46:48.239Z,90.10
2019-02-08T04:49:18.892Z,90.10
2019-02-08T04:51:49.441Z,90.10
2019-02-08T04:54:20.168Z,90.00
2019-02-08T04:56:50.874Z,90.10
2019-02-08T04:59:21.507Z,90.10
2019-02-08T05:01:52.167Z,90.20
2019-02-08T05:04:22.801Z,90.40
2019-02-08T05:06:53.438Z,90.50
2019-02-08T05:09:24.137Z,90.60
2019-02-08T05:11:54.831Z,90.60
2019-02-08T05:14:25.397Z,90.50
2019-02-08T05:16:55.974Z,90.50
2019-02-08T05:19:26.662Z,90.30
2019-02-08T05:21:57.203Z,90.20
2019-02-08T05:24:27.740Z,90.10
2019-02-08T05:26:58.326Z,90.50
2019-02-08T05:29:29.007Z,90.10
2019-02-08T05:31:59.660Z,90.20
2019-02-08T05:34:30.343Z,90.10
2019-02-08T05:37:01.029Z,90.10
2019-02-08T05:39:31.632Z,90.10
2019-02-08T05:42:02.188Z,90.10
2019-02-08T05:44:33.040Z,90.10
2019-02-08T05:47:03.983Z,90.20
2019-02-08T05:49:34.647Z,90.20
2019-02-08T05:52:06.037Z,90.20
2019-02-08T05:54:36.784Z,90.20
2019-02-08T05:57:07.294Z,90.10
2019-02-08T05:59:37.823Z,90.10
2019-02-08T06:02:08.535Z,90.10
2019-02-08T06:04:39.121Z,90.10
2019-02-08T06:07:09.778Z,90.20
2019-02-08T06:09:40.337Z,90.10
2019-02-08T06:12:11.047Z,90.10
2019-02-08T06:14:41.729Z,90.10
2019-02-08T06:17:12.318Z,90.00
2019-02-08T06:19:42.865Z,90.00
2019-02-08T06:22:13.508Z,90.00
2019-02-08T06:24:44.314Z,89.90
2019-02-08T06:27:15.974Z,90.00
2019-02-08T06:29:46.525Z,90.00
2019-02-08T06:32:22.471Z,90.10
2019-02-08T06:34:56.284Z,90.10
2019-02-08T06:37:26.978Z,90.10
2019-02-08T06:39:57.634Z,90.00
2019-02-08T06:42:28.220Z,90.00
2019-02-08T06:44:58.875Z,90.00
2019-02-08T06:47:29.969Z,90.00
2019-02-08T06:50:00.647Z,90.00
2019-02-08T06:52:31.268Z,90.00
2019-02-08T06:55:02.020Z,90.00
2019-02-08T06:57:46.863Z,89.80
2019-02-08T07:00:24.758Z,89.80
2019-02-08T07:03:17.384Z,89.70
2019-02-08T07:06:07.454Z,89.70
2019-02-08T07:08:50.180Z,89.70
2019-02-08T07:11:42.655Z,89.60
2019-02-08T07:14:33.045Z,89.50
2019-02-08T07:17:35.181Z,89.30
2019-02-08T07:20:32.115Z,89.30
2019-02-08T07:23:26.631Z,89.30
2019-02-08T07:26:11.127Z,89.20
2019-02-08T07:28:59.739Z,89.00
2019-02-08T07:31:53.464Z,89.10
2019-02-08T07:34:42.834Z,88.90
2019-02-08T07:37:31.807Z,88.90
2019-02-08T07:40:20.375Z,88.80
2019-02-08T07:43:11.163Z,88.50
2019-02-08T07:45:56.178Z,88.60
2019-02-08T07:48:44.961Z,88.70
2019-02-08T07:51:37.746Z,88.50
2019-02-08T07:54:33.747Z,88.00
2019-02-08T07:57:22.475Z,87.90
2019-02-08T08:00:15.364Z,87.70
2019-02-08T08:03:07.657Z,87.50
2019-02-08T08:06:08.284Z,87.30
2019-02-08T08:09:13.395Z,87.20
2019-02-08T08:12:09.409Z,86.80
2019-02-08T08:15:02.593Z,86.30
2019-02-08T08:17:43.284Z,86.10
2019-02-08T08:20:44.855Z,85.90
2019-02-08T08:23:33.935Z,82.70
2019-02-08T08:26:30.792Z,79.30
2019-02-08T08:29:04.470Z,77.60
2019-02-08T08:31:55.948Z,75.80
2019-02-08T08:35:03.489Z,73.90
2019-02-08T08:37:52.998Z,72.70
2019-02-08T08:41:06.427Z,72.70
2019-02-08T08:44:36.590Z,72.80
2019-02-08T08:47:43.154Z,71.10
2019-02-08T08:50:38.319Z,69.50
2019-02-08T08:53:37.289Z,69.70
2019-02-08T08:56:35.828Z,68.00
2019-02-08T08:59:48.297Z,67.40
2019-02-08T09:02:55.793Z,65.90
2019-02-08T09:06:19.956Z,66.10
2019-02-08T09:09:36.163Z,64.70
2019-02-08T09:12:36.187Z,61.50
2019-02-08T09:15:57.810Z,58.70
2019-02-08T09:19:05.104Z,56.40
2019-02-08T09:22:12.258Z,54.20
2019-02-08T09:25:08.449Z,52.30
2019-02-08T09:28:18.171Z,50.50
2019-02-08T09:31:16.960Z,49.80
2019-02-08T09:34:30.362Z,49.00
2019-02-08T09:37:26.109Z,48.30
2019-02-08T09:40:38.167Z,47.30
2019-02-08T09:44:02.282Z,47.20
2019-02-08T09:46:51.413Z,46.90
2019-02-08T09:50:15.180Z,46.10
2019-02-08T09:53:36.372Z,45.70
2019-02-08T09:56:26.630Z,44.90
2019-02-08T09:59:23.311Z,44.40
2019-02-08T10:02:20.946Z,43.90
2019-02-08T10:05:48.106Z,43.50
2019-02-08T10:08:54.550Z,43.80
2019-02-08T10:12:24.253Z,43.60
2019-02-08T10:15:30.565Z,42.50
2019-02-08T10:18:40.636Z,41.80
2019-02-08T10:22:04.749Z,41.30
2019-02-08T10:25:11.631Z,42.00
2019-02-08T10:28:27.580Z,42.00
2019-02-08T10:31:38.110Z,42.40
2019-02-08T10:34:56.065Z,42.70
2019-02-08T10:38:16.546Z,43.60
2019-02-08T10:41:30.382Z,44.60
2019-02-08T10:44:34.650Z,44.60
2019-02-08T10:47:42.448Z,47.00
2019-02-08T10:50:53.932Z,48.60
2019-02-08T10:54:08.587Z,49.40
2019-02-08T10:57:34.580Z,50.60
2019-02-08T11:01:01.537Z,51.70
2019-02-08T11:04:15.643Z,51.30
2019-02-08T11:07:57.973Z,52.50
2019-02-08T11:11:06.012Z,53.20
2019-02-08T11:14:34.650Z,53.10
2019-02-08T11:17:33.613Z,53.50
2019-02-08T11:20:06.729Z,54.10
2019-02-08T11:22:37.575Z,53.40
2019-02-08T11:25:08.841Z,53.70
2019-02-08T11:27:39.582Z,54.20
2019-02-08T11:30:13.685Z,54.10
2019-02-08T11:32:44.655Z,53.90
2019-02-08T11:35:15.923Z,54.20
2019-02-08T11:37:46.612Z,54.40
2019-02-08T11:40:24.165Z,54.20
2019-02-08T11:42:54.719Z,54.20
2019-02-08T11:45:25.367Z,55.00
2019-02-08T11:47:59.478Z,54.40
2019-02-08T11:50:30.458Z,54.10
2019-02-08T11:53:01.134Z,54.40
2019-02-08T11:55:31.853Z,54.00
2019-02-08T11:58:03.933Z,53.80
2019-02-08T12:00:37.712Z,53.70
2019-02-08T12:03:08.626Z,53.60
2019-02-08T12:05:39.259Z,53.40
2019-02-08T12:08:10.409Z,53.00
2019-02-08T12:10:41.397Z,53.20
2019-02-08T12:13:12.127Z,53.50
2019-02-08T12:15:43.248Z,53.60
2019-02-08T12:18:13.969Z,53.50
2019-02-08T12:20:44.637Z,53.30
2019-02-08T12:23:15.737Z,53.20
2019-02-08T12:25:46.341Z,53.20
2019-02-08T12:28:16.887Z,53.10
2019-02-08T12:30:47.717Z,53.30
2019-02-08T12:33:18.311Z,53.10
2019-02-08T12:35:48.911Z,53.30
2019-02-08T12:38:19.577Z,53.50
2019-02-08T12:40:50.202Z,53.40
2019-02-08T12:43:20.920Z,53.00
2019-02-08T12:45:51.648Z,53.00
2019-02-08T12:48:22.247Z,53.10
2019-02-08T12:50:52.875Z,53.20
2019-02-08T12:53:23.455Z,53.20
2019-02-08T12:55:54.140Z,53.20
2019-02-08T12:58:24.701Z,53.20
2019-02-08T13:00:55.336Z,53.20
2019-02-08T13:03:25.932Z,53.30
2019-02-08T13:05:56.474Z,53.30
2019-02-08T13:08:27.169Z,53.20
2019-02-08T13:10:57.894Z,53.30
2019-02-08T13:13:28.978Z,53.40
2019-02-08T13:15:59.840Z,53.50
2019-02-08T13:18:30.578Z,53.50
2019-02-08T13:21:01.403Z,53.50
2019-02-08T13:23:32.024Z,53.60
2019-02-08T13:26:02.634Z,53.60
2019-02-08T13:28:33.319Z,53.60
2019-02-08T13:31:04.002Z,53.50
2019-02-08T13:33:34.635Z,53.60
2019-02-08T13:36:10.938Z,53.70
2019-02-08T13:38:41.489Z,53.60
2019-02-08T13:41:12.176Z,53.70
2019-02-08T13:43:42.737Z,53.90
2019-02-08T13:46:13.339Z,53.80
2019-02-08T13:48:44.301Z,53.90
2019-02-08T13:51:14.999Z,54.00
2019-02-08T13:53:45.655Z,53.90
2019-02-08T13:56:16.360Z,53.90
2019-02-08T13:58:46.955Z,54.00
2019-02-08T14:01:17.940Z,54.10
2019-02-08T14:03:48.671Z,54.20
2019-02-08T14:06:19.293Z,54.20
2019-02-08T14:08:49.969Z,54.30
2019-02-08T14:11:20.603Z,54.40
2019-02-08T14:13:51.222Z,54.50
2019-02-08T14:16:21.737Z,54.60
2019-02-08T14:18:52.390Z,54.60
2019-02-08T14:21:23.034Z,54.80
2019-02-08T14:23:53.703Z,54.80
2019-02-08T14:26:24.306Z,55.00
2019-02-08T14:28:54.894Z,55.10
2019-02-08T14:31:25.547Z,55.10
2019-02-08T14:33:56.209Z,55.30
2019-02-08T14:36:27.903Z,56.10
2019-02-08T14:38:58.609Z,55.50
2019-02-08T14:41:29.355Z,55.70
2019-02-08T14:44:00.108Z,55.80
2019-02-08T14:46:30.773Z,55.90
2019-02-08T14:49:01.706Z,56.00
2019-02-08T14:51:33.420Z,56.10
2019-02-08T14:54:05.862Z,56.20
2019-02-08T14:56:36.773Z,56.20
2019-02-08T14:59:07.887Z,56.50
2019-02-08T15:01:38.584Z,56.60
2019-02-08T15:04:09.578Z,56.90
2019-02-08T15:06:40.282Z,56.90
2019-02-08T15:09:11.784Z,57.80
2019-02-08T15:11:42.723Z,57.20
2019-02-08T15:14:13.436Z,57.30
2019-02-08T15:16:44.049Z,57.40
2019-02-08T15:19:14.628Z,57.60
2019-02-08T15:21:45.374Z,57.60
2019-02-08T15:24:16.042Z,57.70
2019-02-08T15:26:46.721Z,57.80
2019-02-08T15:29:17.578Z,58.00
2019-02-08T15:31:48.377Z,58.10
2019-02-08T15:34:18.980Z,58.40
2019-02-08T15:36:49.660Z,58.40
2019-02-08T15:39:20.585Z,58.30
2019-02-08T15:41:51.250Z,58.40
2019-02-08T15:44:21.930Z,58.50
2019-02-08T15:46:52.639Z,58.80
2019-02-08T15:49:23.802Z,58.80
2019-02-08T15:51:54.497Z,58.90
2019-02-08T15:54:25.143Z,58.90
2019-02-08T15:56:55.988Z,59.00
2019-02-08T15:59:26.618Z,59.10
2019-02-08T16:01:57.306Z,59.00
2019-02-08T16:04:28.582Z,59.20
2019-02-08T16:06:59.240Z,59.20
2019-02-08T16:09:29.904Z,59.20
2019-02-08T16:12:00.633Z,59.40
2019-02-08T16:14:31.713Z,59.50
2019-02-08T16:17:02.280Z,59.40
2019-02-08T16:19:32.935Z,59.60
2019-02-08T16:22:04.248Z,59.90
2019-02-08T16:24:41.075Z,59.80
2019-02-08T16:27:11.714Z,59.90
2019-02-08T16:29:42.378Z,60.00
2019-02-08T16:32:13.123Z,60.10
2019-02-08T16:34:44.385Z,60.20
2019-02-08T16:37:15.114Z,60.30
2019-02-08T16:39:45.838Z,61.20
2019-02-08T16:42:16.602Z,60.80
2019-02-08T16:44:47.315Z,60.90
2019-02-08T16:47:19.039Z,61.00
2019-02-08T16:49:50.305Z,61.30
2019-02-08T16:52:20.949Z,61.20
2019-02-08T16:54:51.972Z,61.50
2019-02-08T16:57:22.533Z,61.60
2019-02-08T16:59:53.123Z,62.00
2019-02-08T17:02:23.801Z,62.00
2019-02-08T17:04:54.415Z,62.20
2019-02-08T17:07:25.339Z,62.30
2019-02-08T17:09:56.018Z,62.50
2019-02-08T17:12:26.571Z,62.50
2019-02-08T17:14:57.256Z,63.10
2019-02-08T17:17:27.871Z,62.90
2019-02-08T17:19:58.501Z,63.30
2019-02-08T17:22:29.480Z,63.20
2019-02-08T17:25:00.246Z,63.10
2019-02-08T17:27:30.933Z,63.20
2019-02-08T17:30:01.525Z,63.70
2019-02-08T17:32:34.086Z,63.80
2019-02-08T17:35:06.326Z,63.90
2019-02-08T17:37:37.045Z,64.00
2019-02-08T17:40:10.058Z,64.30
2019-02-08T17:42:40.863Z,64.40
2019-02-08T17:45:12.760Z,64.70
2019-02-08T17:47:43.409Z,65.00
2019-02-08T17:50:16.758Z,65.20
2019-02-08T17:52:47.574Z,64.80
2019-02-08T17:55:19.544Z,65.50
2019-02-08T17:57:50.210Z,65.30
2019-02-08T18:00:52.619Z,65.40
2019-02-08T18:03:23.362Z,65.80
2019-02-08T18:05:54.118Z,65.80
2019-02-08T18:08:24.660Z,65.80
2019-02-08T18:10:55.447Z,65.70
2019-02-08T18:13:26.325Z,66.20
2019-02-08T18:15:57.057Z,66.30
2019-02-08T18:18:27.964Z,66.40
2019-02-08T18:21:04.286Z,66.50
2019-02-08T18:23:35.028Z,66.30
2019-02-08T18:26:05.697Z,66.30
2019-02-08T18:28:37.289Z,66.20
2019-02-08T18:31:08.959Z,66.30
2019-02-08T18:33:39.568Z,66.20
2019-02-08T18:36:10.283Z,66.30
2019-02-08T18:38:40.836Z,66.20
2019-02-08T18:41:11.481Z,66.50
2019-02-08T18:43:42.113Z,66.50
2019-02-08T18:46:12.811Z,66.70
2019-02-08T18:48:43.403Z,66.50
2019-02-08T18:51:14.039Z,66.50
2019-02-08T18:53:45.029Z,66.50
2019-02-08T18:56:15.685Z,66.70
2019-02-08T18:58:46.214Z,66.80
2019-02-08T19:01:16.875Z,66.80
2019-02-08T19:03:47.574Z,66.90
2019-02-08T19:06:18.265Z,67.20
2019-02-08T19:08:48.903Z,67.10
2019-02-08T19:11:19.917Z,67.40
2019-02-08T19:13:50.590Z,67.70
2019-02-08T19:16:21.387Z,67.20
2019-02-08T19:18:52.037Z,67.30
2019-02-08T19:21:22.617Z,67.50
2019-02-08T19:23:53.183Z,67.70
2019-02-08T19:26:23.876Z,67.60
2019-02-08T19:28:54.742Z,67.70
2019-02-08T19:31:25.687Z,67.60
2019-02-08T19:33:56.332Z,67.60
2019-02-08T19:36:26.973Z,67.70
2019-02-08T19:38:57.617Z,67.60
2019-02-08T19:41:28.360Z,68.00
2019-02-08T19:43:59.058Z,67.70
2019-02-08T19:46:29.707Z,68.30
2019-02-08T19:49:00.390Z,67.70
2019-02-08T19:51:30.966Z,68.70
2019-02-08T19:54:01.651Z,67.70
2019-02-08T19:56:32.262Z,67.90
2019-02-08T19:59:22.271Z,67.80
2019-02-08T20:01:52.942Z,67.90
2019-02-08T20:04:23.604Z,67.70
2019-02-08T20:06:54.334Z,67.70
2019-02-08T20:09:24.981Z,67.60
2019-02-08T20:11:55.585Z,67.70
2019-02-08T20:14:26.120Z,67.70
2019-02-08T20:16:56.851Z,67.70
2019-02-08T20:19:27.463Z,67.70
2019-02-08T20:21:58.097Z,67.70
2019-02-08T20:24:28.691Z,67.70
2019-02-08T20:26:59.441Z,67.80
2019-02-08T20:29:30.222Z,67.80
2019-02-08T20:32:00.843Z,67.70
2019-02-08T20:34:31.542Z,67.70
2019-02-08T20:37:02.348Z,67.90
2019-02-08T20:39:33.045Z,67.90
2019-02-08T20:42:03.663Z,68.10
2019-02-08T20:44:34.319Z,68.10
2019-02-08T20:47:04.892Z,68.10
2019-02-08T20:49:35.886Z,68.10
2019-02-08T20:52:06.493Z,68.20
2019-02-08T20:54:37.123Z,68.20
2019-02-08T20:57:07.942Z,68.20
2019-02-08T20:59:38.778Z,68.40
2019-02-08T21:02:09.376Z,68.50
2019-02-08T21:04:39.978Z,68.70
2019-02-08T21:07:10.674Z,68.60
2019-02-08T21:09:41.379Z,68.70
2019-02-08T21:12:12.106Z,68.90
2019-02-08T21:14:42.875Z,69.10
2019-02-08T21:17:13.559Z,69.70
2019-02-08T21:19:44.465Z,69.10
2019-02-08T21:22:15.136Z,68.90
2019-02-08T21:24:45.652Z,69.20
2019-02-08T21:27:16.320Z,69.10
2019-02-08T21:29:46.849Z,69.10
2019-02-08T21:32:17.547Z,69.30
2019-02-08T21:34:48.127Z,69.10
2019-02-08T21:37:18.771Z,69.30
2019-02-08T21:39:49.432Z,69.20
2019-02-08T21:42:19.982Z,69.20
2019-02-08T21:44:51.009Z,69.20
2019-02-08T21:47:24.399Z,69.30
2019-02-08T21:49:54.988Z,69.30
2019-02-08T21:52:25.679Z,69.10
2019-02-08T21:54:57.163Z,69.90
2019-02-08T21:57:27.786Z,69.30
2019-02-08T21:59:58.406Z,69.10
2019-02-08T22:02:28.970Z,69.10
2019-02-08T22:04:59.693Z,69.10
2019-02-08T22:07:30.373Z,69.10
2019-02-08T22:10:01.057Z,69.10
2019-02-08T22:12:32.217Z,69.10
2019-02-08T22:15:02.825Z,69.10
2019-02-08T22:17:33.425Z,69.10
2019-02-08T22:20:05.830Z,69.20
2019-02-08T22:22:36.442Z,69.30
2019-02-08T22:25:08.030Z,69.40
2019-02-08T22:27:38.749Z,69.30
2019-02-08T22:30:12.689Z,69.50
2019-02-08T22:32:43.917Z,69.50
2019-02-08T22:35:15.352Z,69.70
2019-02-08T22:37:46.063Z,69.70
2019-02-08T22:40:18.357Z,69.70
2019-02-08T22:42:49.369Z,69.70
2019-02-08T22:45:28.627Z,69.70
2019-02-08T22:47:59.676Z,69.80
2019-02-08T22:50:30.819Z,69.80
2019-02-08T22:53:01.436Z,69.80
2019-02-08T22:55:32.508Z,69.80
2019-02-08T22:58:03.202Z,69.80
2019-02-08T23:01:30.927Z,69.50
2019-02-08T23:04:03.115Z,69.90
2019-02-08T23:06:33.721Z,69.80
2019-02-08T23:09:08.485Z,69.80
2019-02-08T23:11:39.670Z,70.00
2019-02-08T23:14:10.343Z,70.00
2019-02-08T23:16:41.331Z,69.90
2019-02-08T23:19:11.982Z,70.00
2019-02-08T23:21:42.703Z,69.90
2019-02-08T23:24:13.453Z,70.00
2019-02-08T23:26:44.073Z,69.80
2019-02-08T23:29:14.802Z,69.90
2019-02-08T23:31:45.434Z,69.90
2019-02-08T23:34:16.433Z,69.90
2019-02-08T23:36:48.183Z,69.90
2019-02-08T23:39:18.824Z,69.90
2019-02-08T23:41:49.355Z,69.90
2019-02-08T23:44:20.021Z,69.80
2019-02-08T23:46:50.708Z,69.90
2019-02-08T23:49:21.477Z,70.00
2019-02-08T23:51:52.153Z,69.90
2019-02-08T23:54:23.116Z,70.00
2019-02-08T23:56:53.779Z,70.20
2019-02-08T23:59:24.504Z,69.90
